Time;durP1;ratioP1;P1;durP2;ratioP2;P2;SDS_P1;SDS_P2;PMS_P1;PMS_P2;Temp;Humidity;BMP_temperature;BMP_pressure;BME280_temperature;BME280_humidity;BME280_pressure;Samples;Min_cycle;Max_cycle;Signal;HPM_P1;HPM_P2
2021/06/07 20:20:35;;;;;;;11.90;7.20;;;23.60;47.40;;;;;;5122032;27;20326;-84
2021/06/07 20:23:02;;;;;;;10.75;7.95;;;23.40;48.70;;;;;;5127193;27;20829;-83
2021/06/07 20:25:27;;;;;;;12.65;8.23;;;23.40;48.70;;;;;;5127311;27;20016;-85
2021/06/07 20:27:53;;;;;;;9.23;6.00;;;23.40;48.60;;;;;;5127302;27;20054;-85
2021/06/07 20:30:20;;;;;;;6.13;5.43;;;23.30;49.00;;;;;;5127446;27;20120;-84
2021/06/07 20:32:45;;;;;;;6.25;5.18;;;23.40;48.40;;;;;;5128803;27;20039;-84
2021/06/07 20:35:13;;;;;;;8.68;5.50;;;23.30;48.70;;;;;;5127756;28;20045;-86
2021/06/07 20:37:40;;;;;;;6.38;5.13;;;23.30;49.40;;;;;;5124144;27;20019;-84
2021/06/07 20:40:07;;;;;;;5.90;5.20;;;23.20;49.40;;;;;;5128166;27;20717;-85
2021/06/07 20:42:33;;;;;;;6.95;4.85;;;23.30;50.20;;;;;;5128010;27;20443;-88
2021/06/07 20:44:58;;;;;;;5.22;4.40;;;23.20;50.70;;;;;;5127454;27;20023;-87
2021/06/07 20:47:27;;;;;;;6.43;4.80;;;23.10;51.10;;;;;;5128506;27;20433;-92
2021/06/07 20:49:53;;;;;;;8.13;5.15;;;23.10;51.40;;;;;;5132572;27;20062;-90
2021/06/07 20:52:19;;;;;;;7.53;4.75;;;23.10;51.90;;;;;;5130843;27;20030;-82
2021/06/07 20:54:44;;;;;;;6.75;5.43;;;22.90;52.20;;;;;;5125411;27;20023;-83
2021/06/07 20:57:10;;;;;;;5.30;4.65;;;22.90;52.70;;;;;;5126832;28;20020;-82
2021/06/07 20:59:35;;;;;;;7.85;5.32;;;22.90;53.00;;;;;;5124635;28;20431;-83
2021/06/07 21:02:01;;;;;;;5.97;4.70;;;22.90;53.20;;;;;;5127117;27;20024;-82
2021/06/07 21:04:26;;;;;;;7.65;5.72;;;22.80;53.60;;;;;;5126267;27;20035;-82
2021/06/07 21:06:52;;;;;;;7.32;5.68;;;22.70;53.70;;;;;;5130548;27;20019;-82
2021/06/07 21:09:19;;;;;;;7.70;4.93;;;22.70;53.80;;;;;;5122292;27;22237;-87
2021/06/07 21:11:44;;;;;;;9.60;5.75;;;22.60;54.30;;;;;;5123775;28;20086;-86
2021/06/07 21:14:10;;;;;;;10.95;6.47;;;22.60;54.60;;;;;;5124920;27;20031;-86
2021/06/07 21:16:35;;;;;;;7.45;5.65;;;22.60;54.80;;;;;;5123885;28;20020;-85
2021/06/07 21:19:01;;;;;;;7.05;5.00;;;22.60;54.80;;;;;;5119842;28;20481;-86
2021/06/07 21:21:27;;;;;;;6.55;5.30;;;22.50;54.80;;;;;;5110277;28;20515;-85
2021/06/07 21:23:53;;;;;;;7.78;5.78;;;22.40;54.80;;;;;;5106596;28;20430;-86
2021/06/07 21:26:18;;;;;;;6.32;5.30;;;22.40;54.90;;;;;;5107501;28;20024;-86
2021/06/07 21:28:44;;;;;;;6.45;5.25;;;22.40;55.50;;;;;;5108513;28;20032;-84
2021/06/07 21:31:10;;;;;;;5.63;4.97;;;22.30;55.70;;;;;;5109238;28;20020;-85
2021/06/07 21:33:35;;;;;;;6.60;5.18;;;22.30;55.80;;;;;;5111483;28;20024;-86
2021/06/07 21:36:01;;;;;;;5.85;5.25;;;22.30;55.60;;;;;;5107143;28;20039;-88
2021/06/07 21:38:26;;;;;;;8.05;5.68;;;22.20;55.70;;;;;;5107607;28;20093;-86
2021/06/07 21:40:54;;;;;;;11.70;9.82;;;22.10;55.90;;;;;;5108252;28;20034;-87
2021/06/07 21:43:19;;;;;;;7.05;4.78;;;22.10;56.20;;;;;;5107807;28;20026;-85
2021/06/07 21:45:45;;;;;;;8.75;6.25;;;22.10;55.90;;;;;;5112513;28;20031;-87
2021/06/07 21:48:10;;;;;;;6.30;5.32;;;22.10;56.50;;;;;;5122978;28;20047;-87
2021/06/07 21:50:36;;;;;;;5.60;5.03;;;22.00;55.70;;;;;;5110554;28;20456;-87
2021/06/07 21:53:01;;;;;;;5.50;5.00;;;22.00;55.90;;;;;;5111018;28;20024;-88
2021/06/07 21:55:27;;;;;;;5.30;4.80;;;22.00;56.30;;;;;;5106891;28;20044;-88
2021/06/07 21:57:52;;;;;;;5.72;5.10;;;21.90;56.10;;;;;;5111915;28;20114;-88
2021/06/07 22:00:18;;;;;;;7.72;5.35;;;21.90;56.50;;;;;;5109035;28;20126;-87
2021/06/07 22:02:44;;;;;;;6.20;5.60;;;21.80;56.30;;;;;;5114364;28;20070;-87
2021/06/07 22:05:10;;;;;;;9.85;4.80;;;21.80;56.70;;;;;;5124330;28;20040;-88
2021/06/07 22:07:36;;;;;;;8.02;6.18;;;21.80;56.80;;;;;;5122095;28;20092;-88
2021/06/07 22:10:05;;;;;;;9.90;6.45;;;21.70;56.90;;;;;;5124356;28;20055;-86
2021/06/07 22:12:34;;;;;;;6.22;5.63;;;21.80;57.20;;;;;;5118693;28;20030;-84
2021/06/07 22:15:00;;;;;;;8.98;6.05;;;21.70;57.10;;;;;;5113457;28;20289;-86
2021/06/07 22:17:27;;;;;;;6.70;5.18;;;21.70;57.00;;;;;;5109417;28;20024;-88
2021/06/07 22:19:53;;;;;;;7.80;5.47;;;21.60;57.20;;;;;;5109601;28;20047;-86
2021/06/07 22:22:19;;;;;;;7.93;5.40;;;21.60;57.30;;;;;;5106900;28;20404;-88
2021/06/07 22:24:44;;;;;;;8.05;5.32;;;21.60;57.30;;;;;;5112160;28;20471;-85
2021/06/07 22:27:10;;;;;;;8.25;6.13;;;21.50;57.40;;;;;;5110378;28;20044;-86
2021/06/07 22:29:35;;;;;;;6.07;5.50;;;21.50;57.70;;;;;;5111011;28;20042;-85
2021/06/07 22:32:01;;;;;;;5.82;5.28;;;21.50;57.80;;;;;;5114958;28;20039;-89
2021/06/07 22:34:27;;;;;;;6.45;5.80;;;21.40;57.90;;;;;;5119875;28;20054;-87
2021/06/07 22:36:53;;;;;;;7.43;6.47;;;21.40;58.20;;;;;;5120823;28;20047;-88
2021/06/07 22:39:18;;;;;;;9.75;5.00;;;21.40;58.30;;;;;;5110188;28;20438;-73
2021/06/07 22:41:44;;;;;;;8.77;5.80;;;21.30;58.20;;;;;;5107369;28;20023;-73
2021/06/07 22:44:10;;;;;;;30.73;20.40;;;21.30;58.30;;;;;;5105259;28;20032;-73
2021/06/07 22:46:37;;;;;;;7.18;5.43;;;21.30;58.60;;;;;;5107812;28;20284;-74
2021/06/07 22:49:03;;;;;;;6.75;5.40;;;21.20;58.60;;;;;;5105759;28;20040;-74
2021/06/07 22:51:28;;;;;;;10.00;8.90;;;21.20;58.60;;;;;;5096768;28;20024;-74
2021/06/07 22:53:53;;;;;;;40.88;25.75;;;21.20;58.90;;;;;;5102628;28;20031;-75
2021/06/07 22:56:19;;;;;;;5.97;5.00;;;21.20;58.90;;;;;;5105992;28;20024;-73
2021/06/07 22:58:44;;;;;;;6.20;5.15;;;21.10;59.40;;;;;;5104292;28;20102;-76
2021/06/07 23:01:10;;;;;;;5.80;5.18;;;21.10;59.10;;;;;;5106232;28;20055;-73
2021/06/07 23:03:36;;;;;;;6.47;5.45;;;21.00;59.30;;;;;;5105916;28;20122;-75
2021/06/07 23:06:02;;;;;;;10.00;5.10;;;21.00;59.50;;;;;;5105641;28;20111;-74
2021/06/07 23:08:27;;;;;;;5.72;4.85;;;20.90;59.50;;;;;;5102652;28;20460;-74
2021/06/07 23:10:54;;;;;;;7.18;4.90;;;20.80;59.60;;;;;;5095524;28;20049;-73
2021/06/07 23:13:20;;;;;;;6.40;5.30;;;20.80;59.80;;;;;;5106388;28;20464;-73
2021/06/07 23:15:46;;;;;;;7.05;5.15;;;20.90;59.80;;;;;;5108975;28;20073;-74
2021/06/07 23:18:11;;;;;;;7.63;5.53;;;20.80;59.80;;;;;;5107853;28;20415;-74
2021/06/07 23:20:37;;;;;;;6.15;4.82;;;20.80;59.90;;;;;;5104062;28;20030;-74
2021/06/07 23:23:04;;;;;;;5.85;5.25;;;20.80;60.10;;;;;;5108151;28;20035;-74
2021/06/07 23:25:30;;;;;;;6.03;5.38;;;20.80;60.10;;;;;;5109059;28;20034;-73
2021/06/07 23:27:55;;;;;;;5.63;5.03;;;20.70;60.10;;;;;;5108916;28;20225;-73
2021/06/07 23:30:21;;;;;;;7.60;5.75;;;20.70;60.50;;;;;;5107590;28;20020;-73
2021/06/07 23:32:46;;;;;;;8.32;6.72;;;20.70;60.50;;;;;;5104617;28;20019;-75
2021/06/07 23:35:12;;;;;;;7.68;6.97;;;20.60;60.50;;;;;;5106676;28;20066;-74
2021/06/07 23:37:37;;;;;;;6.68;5.40;;;20.60;60.50;;;;;;5106718;28;20031;-74
2021/06/07 23:40:04;;;;;;;9.02;7.50;;;20.60;60.60;;;;;;5104922;28;20043;-77
2021/06/07 23:42:30;;;;;;;6.85;5.95;;;20.60;60.70;;;;;;5108330;28;20051;-74
2021/06/07 23:44:57;;;;;;;6.50;5.65;;;20.50;60.70;;;;;;5105725;28;20069;-75
2021/06/07 23:47:23;;;;;;;6.20;5.57;;;20.50;60.90;;;;;;5108477;28;20028;-75
2021/06/07 23:49:48;;;;;;;5.50;5.00;;;20.50;60.90;;;;;;5105893;28;20023;-76
2021/06/07 23:52:14;;;;;;;7.47;6.25;;;20.40;61.00;;;;;;5108268;28;20027;-76
2021/06/07 23:54:40;;;;;;;5.63;5.13;;;20.40;61.10;;;;;;5106034;28;20459;-75
2021/06/07 23:57:06;;;;;;;9.55;5.95;;;20.40;61.20;;;;;;5107521;28;20051;-74
2021/06/07 23:59:31;;;;;;;9.10;7.78;;;20.40;61.40;;;;;;5104235;28;20031;-77
